Time;durP1;ratioP1;P1;durP2;ratioP2;P2;SDS_P1;SDS_P2;PMS_P1;PMS_P2;Temp;Humidity;BMP_temperature;BMP_pressure;BME280_temperature;BME280_humidity;BME280_pressure;Samples;Min_cycle;Max_cycle;Signal;HPM_P1;HPM_P2
2021/12/19 00:00:01;;;;;;;5.38;0.95;;;5.50;84.70;;;;;;4156452;28;20033;-76
2021/12/19 00:04:37;;;;;;;8.43;1.10;;;5.50;84.30;;;;;;4138614;28;20029;-76
2021/12/19 00:09:01;;;;;;;5.05;0.70;;;5.40;84.90;;;;;;4149943;28;20029;-76
2021/12/19 00:11:02;;;;;;;3.05;0.57;;;5.40;85.70;;;;;;4138448;28;20547;-76
2021/12/19 00:13:03;;;;;;;2.90;0.52;;;5.40;86.20;;;;;;4118190;28;20046;-77
2021/12/19 00:15:04;;;;;;;3.65;0.68;;;5.30;86.60;;;;;;4170834;28;20112;-77
2021/12/19 00:17:05;;;;;;;5.57;0.93;;;5.30;86.90;;;;;;4151248;28;20049;-77
2021/12/19 00:19:05;;;;;;;7.07;0.85;;;5.20;87.30;;;;;;4152760;28;20034;-77
2021/12/19 00:21:06;;;;;;;6.22;0.80;;;5.20;88.50;;;;;;4151661;28;20523;-77
2021/12/19 00:23:07;;;;;;;6.00;1.10;;;5.20;88.20;;;;;;4140362;28;20033;-77
2021/12/19 00:25:08;;;;;;;4.18;0.90;;;5.20;88.50;;;;;;4133935;28;20038;-77
2021/12/19 00:27:08;;;;;;;8.50;0.80;;;5.20;88.90;;;;;;4136792;28;20025;-77
2021/12/19 00:29:14;;;;;;;3.28;0.75;;;5.20;89.20;;;;;;4151182;28;20029;-77
2021/12/19 00:31:15;;;;;;;4.68;1.10;;;5.10;89.60;;;;;;4150505;28;20079;-76
2021/12/19 00:33:16;;;;;;;7.53;1.60;;;5.10;89.80;;;;;;4137559;28;20038;-76
2021/12/19 00:35:17;;;;;;;9.77;1.48;;;5.10;90.00;;;;;;4150299;28;20036;-76
2021/12/19 00:37:21;;;;;;;8.98;1.40;;;5.20;90.10;;;;;;4148530;28;20033;-77
2021/12/19 00:39:21;;;;;;;15.02;2.13;;;5.10;90.20;;;;;;4149750;28;20025;-76
2021/12/19 00:41:22;;;;;;;7.72;1.70;;;5.10;90.40;;;;;;4148680;28;20041;-77
2021/12/19 00:43:46;;;;;;;14.05;2.15;;;5.20;90.50;;;;;;4148147;28;20483;-77
2021/12/19 00:45:47;;;;;;;9.10;3.03;;;5.20;90.40;;;;;;4164907;28;20061;-77
2021/12/19 00:47:47;;;;;;;;;;;5.20;90.40;;;;;;4150463;28;20036;-77
2021/12/19 00:49:48;;;;;;;10.27;2.20;;;5.20;90.40;;;;;;4156661;28;20285;-77
2021/12/19 00:51:48;;;;;;;17.38;2.63;;;5.30;90.40;;;;;;4153626;28;20051;-76
2021/12/19 00:53:50;;;;;;;13.63;2.40;;;5.30;90.40;;;;;;4136547;28;20066;-76
2021/12/19 00:55:50;;;;;;;15.27;1.90;;;5.30;90.40;;;;;;4153562;28;20099;-76
2021/12/19 00:57:51;;;;;;;10.75;1.83;;;5.30;90.30;;;;;;4139031;28;20053;-76
2021/12/19 00:59:51;;;;;;;6.03;1.40;;;5.30;90.30;;;;;;4156460;28;20112;-76
2021/12/19 01:01:52;;;;;;;6.45;1.35;;;5.40;90.10;;;;;;4159311;28;20032;-76
2021/12/19 01:03:53;;;;;;;6.57;1.73;;;5.40;90.10;;;;;;4153098;28;20053;-76
2021/12/19 01:05:53;;;;;;;8.77;1.92;;;5.40;90.40;;;;;;4168490;28;20033;-77
2021/12/19 01:07:54;;;;;;;11.50;1.65;;;5.40;90.00;;;;;;4152347;28;20033;-76
2021/12/19 01:09:55;;;;;;;5.63;1.10;;;5.40;89.80;;;;;;4169147;28;20037;-77
2021/12/19 01:11:56;;;;;;;9.13;1.73;;;5.50;89.60;;;;;;4141987;28;20026;-77
2021/12/19 01:13:56;;;;;;;8.45;1.10;;;5.40;89.40;;;;;;4158121;28;20432;-77
2021/12/19 01:15:59;;;;;;;8.25;0.90;;;5.50;89.30;;;;;;4152869;28;20034;-77
2021/12/19 01:18:00;;;;;;;6.97;0.97;;;5.50;89.30;;;;;;4158956;28;20526;-77
2021/12/19 01:20:01;;;;;;;9.65;1.27;;;5.40;89.10;;;;;;4169369;28;20311;-77
2021/12/19 01:22:03;;;;;;;3.28;0.90;;;5.50;89.20;;;;;;4158379;28;20017;-77
2021/12/19 01:24:04;;;;;;;9.30;1.60;;;5.50;89.00;;;;;;4152871;28;20037;-77
2021/12/19 01:26:04;;;;;;;13.13;1.55;;;5.50;89.70;;;;;;4139415;28;20430;-77
2021/12/19 01:28:05;;;;;;;12.55;1.83;;;5.50;88.60;;;;;;4155292;28;20080;-77
2021/12/19 01:30:06;;;;;;;9.48;1.85;;;5.50;88.70;;;;;;4155571;28;20026;-77
2021/12/19 01:32:07;;;;;;;9.45;1.73;;;5.50;88.20;;;;;;4120109;28;20038;-77
2021/12/19 01:34:12;;;;;;;8.23;1.85;;;5.50;88.00;;;;;;4135546;28;20624;-77
2021/12/19 01:36:13;;;;;;;12.52;2.22;;;5.60;87.90;;;;;;4153689;28;20410;-77
2021/12/19 01:38:13;;;;;;;10.52;1.95;;;5.60;87.60;;;;;;4157162;28;20057;-77
2021/12/19 01:40:15;;;;;;;12.48;2.05;;;5.60;87.20;;;;;;4124084;28;20054;-77
2021/12/19 01:42:19;;;;;;;16.92;2.05;;;5.60;87.00;;;;;;4129263;28;20101;-77
2021/12/19 01:44:20;;;;;;;17.52;2.28;;;5.70;86.90;;;;;;4149711;28;20034;-77
2021/12/19 01:46:21;;;;;;;8.95;1.98;;;5.70;86.70;;;;;;4168391;28;20032;-77
2021/12/19 01:48:22;;;;;;;10.70;1.92;;;5.70;86.40;;;;;;4157535;28;20037;-77
2021/12/19 01:50:22;;;;;;;16.73;2.30;;;5.80;86.30;;;;;;4133828;28;20161;-77
2021/12/19 01:52:24;;;;;;;20.73;2.00;;;5.80;86.00;;;;;;4157696;28;20025;-77
2021/12/19 01:54:24;;;;;;;12.65;1.77;;;5.80;86.00;;;;;;4138466;28;20034;-77
2021/12/19 01:56:25;;;;;;;11.52;1.80;;;5.80;85.40;;;;;;4149856;28;20111;-77
2021/12/19 01:58:25;;;;;;;7.80;1.40;;;5.80;85.10;;;;;;4139693;28;20064;-77
2021/12/19 02:00:29;;;;;;;11.95;1.90;;;5.90;84.70;;;;;;4156787;28;20060;-77
2021/12/19 02:02:29;;;;;;;10.75;1.58;;;5.90;84.40;;;;;;4159445;28;20035;-76
2021/12/19 02:04:32;;;;;;;9.55;2.05;;;5.90;84.10;;;;;;4125264;28;20456;-76
2021/12/19 02:06:33;;;;;;;13.95;1.80;;;5.90;83.30;;;;;;4109324;28;20041;-77
2021/12/19 02:08:34;;;;;;;14.77;1.80;;;5.90;83.00;;;;;;4154240;28;20033;-77
2021/12/19 02:10:35;;;;;;;8.80;1.38;;;6.00;82.10;;;;;;4122841;28;20038;-77
2021/12/19 02:12:38;;;;;;;8.82;1.70;;;6.00;82.00;;;;;;4137568;28;20496;-76
2021/12/19 02:14:39;;;;;;;5.53;1.23;;;6.00;81.60;;;;;;4129007;28;20050;-76
2021/12/19 02:16:40;;;;;;;9.02;1.27;;;6.00;80.90;;;;;;4125970;28;20349;-76
2021/12/19 02:18:41;;;;;;;10.32;1.95;;;6.00;81.10;;;;;;4147649;28;20032;-76
2021/12/19 02:23:06;;;;;;;6.38;1.38;;;6.00;80.70;;;;;;4230702;23;20119;-76
2021/12/19 02:25:10;;;;;;;10.55;2.25;;;6.00;80.90;;;;;;4124405;28;20516;-76
2021/12/19 02:27:11;;;;;;;10.52;1.80;;;6.10;81.00;;;;;;4121799;28;20418;-76
2021/12/19 02:29:11;;;;;;;10.95;2.28;;;6.10;80.90;;;;;;4136873;28;20030;-76
2021/12/19 02:33:20;;;;;;;15.82;3.17;;;6.10;80.90;;;;;;4165654;28;20049;-74
2021/12/19 02:35:25;;;;;;;8.73;1.52;;;6.10;80.80;;;;;;4169571;28;20060;-74
2021/12/19 02:48:47;;;;;;;9.98;1.63;;;6.20;81.30;;;;;;4149756;28;20029;-74
2021/12/19 02:50:51;;;;;;;10.77;1.83;;;6.20;80.70;;;;;;4155312;28;20483;-74
2021/12/19 02:52:52;;;;;;;18.23;2.55;;;6.20;80.70;;;;;;4157846;28;20033;-74
2021/12/19 02:54:53;;;;;;;18.55;2.35;;;6.20;80.60;;;;;;4151755;28;20707;-74
2021/12/19 02:56:53;;;;;;;16.35;1.95;;;6.20;80.50;;;;;;4156028;28;20037;-74
2021/12/19 02:58:54;;;;;;;14.30;2.00;;;6.20;80.50;;;;;;4153587;28;20155;-74
2021/12/19 03:00:55;;;;;;;12.15;1.88;;;6.20;80.60;;;;;;4154910;28;20032;-73
2021/12/19 03:02:56;;;;;;;12.32;1.90;;;6.30;80.70;;;;;;4140484;28;20026;-74
2021/12/19 03:04:59;;;;;;;13.40;1.83;;;6.30;80.50;;;;;;4151610;28;20117;-74
2021/12/19 03:06:59;;;;;;;12.10;1.80;;;6.30;80.30;;;;;;4168856;28;20783;-74
2021/12/19 03:09:05;;;;;;;12.15;2.20;;;6.30;80.50;;;;;;4151580;28;20033;-74
2021/12/19 03:19:48;;;;;;;11.32;1.63;;;6.40;80.30;;;;;;4152054;28;20168;-73
2021/12/19 03:21:49;;;;;;;18.58;1.92;;;6.30;80.20;;;;;;4151335;28;20098;-74
2021/12/19 03:23:50;;;;;;;15.45;2.15;;;6.40;80.50;;;;;;4146423;28;20021;-74
2021/12/19 03:25:50;;;;;;;16.63;1.85;;;6.30;80.50;;;;;;4154262;28;20022;-74
2021/12/19 03:27:51;;;;;;;11.55;2.03;;;6.30;80.50;;;;;;4154395;28;20035;-74
2021/12/19 03:29:51;;;;;;;9.70;1.80;;;6.40;80.50;;;;;;4153072;28;20079;-73
2021/12/19 03:31:52;;;;;;;11.90;1.60;;;6.30;80.10;;;;;;4154586;28;20025;-74
2021/12/19 03:33:53;;;;;;;8.63;1.50;;;6.40;80.10;;;;;;4155622;28;20032;-74
2021/12/19 03:35:53;;;;;;;9.95;1.48;;;6.40;80.00;;;;;;4154007;28;20113;-75
2021/12/19 03:37:54;;;;;;;13.15;1.88;;;6.40;80.00;;;;;;4155311;28;20037;-73
2021/12/19 03:40:08;;;;;;;14.13;1.92;;;6.40;79.70;;;;;;4156018;28;20033;-75
2021/12/19 03:42:09;;;;;;;11.55;1.85;;;6.40;79.60;;;;;;4153450;28;20175;-74
2021/12/19 03:44:10;;;;;;;7.90;1.58;;;6.40;79.40;;;;;;4156381;28;20021;-75
2021/12/19 03:46:10;;;;;;;18.08;2.30;;;6.40;79.40;;;;;;4150743;28;20076;-75
2021/12/19 03:48:12;;;;;;;10.35;2.00;;;6.40;79.30;;;;;;4169631;28;20469;-74
2021/12/19 03:50:17;;;;;;;14.88;1.90;;;6.50;79.50;;;;;;4135561;28;20093;-74
2021/12/19 03:52:18;;;;;;;14.15;1.85;;;6.50;79.20;;;;;;4135202;28;20040;-74
2021/12/19 03:54:18;;;;;;;16.40;2.58;;;6.50;79.20;;;;;;4150457;28;20426;-74
2021/12/19 03:56:19;;;;;;;17.42;2.75;;;6.40;79.10;;;;;;4152070;28;20026;-75
2021/12/19 03:58:20;;;;;;;8.98;1.50;;;6.50;79.00;;;;;;4159731;28;20030;-75
2021/12/19 04:00:24;;;;;;;21.20;2.53;;;6.50;78.90;;;;;;4156359;28;20033;-74
2021/12/19 04:02:26;;;;;;;14.48;1.75;;;6.50;78.90;;;;;;4150777;28;20719;-74
2021/12/19 04:04:27;;;;;;;13.23;2.25;;;6.50;78.80;;;;;;4175010;28;20025;-74
2021/12/19 04:06:28;;;;;;;15.02;1.73;;;6.50;78.70;;;;;;4157666;28;20014;-74
2021/12/19 04:08:29;;;;;;;14.48;2.10;;;6.50;78.60;;;;;;4155686;28;20172;-74
2021/12/19 04:10:30;;;;;;;27.20;2.25;;;6.50;78.40;;;;;;4174257;28;20033;-73
2021/12/19 04:12:31;;;;;;;11.15;2.78;;;6.50;78.20;;;;;;4158337;28;20029;-75
2021/12/19 04:14:31;;;;;;;16.30;2.33;;;6.50;78.30;;;;;;4153180;28;20084;-74
2021/12/19 04:16:32;;;;;;;16.83;2.58;;;6.50;78.00;;;;;;4160936;28;20033;-74
2021/12/19 04:18:32;;;;;;;17.55;2.15;;;6.50;78.10;;;;;;4159136;28;20035;-74
2021/12/19 04:20:33;;;;;;;18.80;2.42;;;6.50;78.10;;;;;;4157671;28;20057;-73
2021/12/19 04:22:34;;;;;;;23.45;2.78;;;6.50;78.00;;;;;;4159829;28;20042;-73
2021/12/19 04:24:34;;;;;;;23.40;2.25;;;6.50;78.00;;;;;;4157001;28;20757;-74
2021/12/19 04:26:35;;;;;;;19.13;2.58;;;6.50;78.20;;;;;;4158924;28;20105;-74
2021/12/19 04:28:35;;;;;;;12.35;1.90;;;6.50;78.10;;;;;;4159746;28;20022;-74
2021/12/19 04:30:36;;;;;;;21.00;2.75;;;6.50;78.20;;;;;;4158937;28;20029;-73
2021/12/19 04:32:42;;;;;;;11.93;1.70;;;6.50;77.80;;;;;;4155290;28;20021;-74
2021/12/19 04:34:42;;;;;;;9.98;1.70;;;6.60;78.10;;;;;;4159520;28;20120;-74
2021/12/19 04:36:46;;;;;;;12.20;1.77;;;6.60;77.70;;;;;;4141948;28;20535;-74
2021/12/19 04:39:36;;;;;;;14.90;2.75;;;6.60;77.90;;;;;;4145516;28;20598;-75
2021/12/19 04:57:05;;;;;;;13.60;2.80;;;6.60;77.60;;;;;;4157330;28;20029;-72
2021/12/19 05:01:53;;;;;;;12.95;1.83;;;6.60;77.50;;;;;;4169774;28;20084;-73
2021/12/19 05:04:04;;;;;;;24.83;3.10;;;6.60;77.30;;;;;;4157262;28;20033;-73
2021/12/19 05:15:04;;;;;;;15.23;1.98;;;6.70;77.20;;;;;;4156661;28;20030;-73
2021/12/19 05:17:08;;;;;;;19.65;1.92;;;6.60;77.20;;;;;;4154335;28;20114;-73
2021/12/19 05:19:29;;;;;;;10.82;2.08;;;6.70;76.90;;;;;;4154313;28;20021;-72
2021/12/19 05:21:30;;;;;;;17.77;2.17;;;6.60;76.80;;;;;;4158585;28;20030;-73
2021/12/19 05:25:31;;;;;;;17.38;1.83;;;6.70;76.60;;;;;;4156244;28;20735;-73
2021/12/19 05:27:31;;;;;;;12.27;2.08;;;6.60;76.70;;;;;;4158338;28;20104;-73
2021/12/19 05:29:32;;;;;;;20.70;2.00;;;6.70;76.80;;;;;;4155647;28;20030;-73
2021/12/19 05:31:33;;;;;;;16.27;2.20;;;6.60;76.70;;;;;;4156241;28;20079;-74
2021/12/19 05:33:34;;;;;;;9.93;1.27;;;6.60;76.40;;;;;;4158390;28;20025;-73
2021/12/19 05:47:05;;;;;;;17.33;2.78;;;6.60;75.90;;;;;;4152673;28;20072;-73
2021/12/19 05:49:06;;;;;;;13.63;1.80;;;6.60;75.90;;;;;;4156045;28;20507;-73
2021/12/19 05:51:07;;;;;;;16.77;2.05;;;6.60;76.10;;;;;;4172437;28;20812;-73
2021/12/19 05:53:07;;;;;;;17.27;2.33;;;6.60;76.20;;;;;;4171467;28;20079;-74
2021/12/19 05:55:08;;;;;;;20.63;2.30;;;6.60;76.10;;;;;;4153813;28;20487;-73
2021/12/19 05:57:09;;;;;;;17.05;1.95;;;6.60;76.20;;;;;;4155287;28;20511;-74
2021/12/19 05:59:10;;;;;;;16.38;1.73;;;6.60;76.30;;;;;;4156897;28;20091;-74
2021/12/19 06:01:11;;;;;;;18.92;2.20;;;6.60;76.20;;;;;;4156553;28;20557;-74
2021/12/19 06:03:11;;;;;;;18.08;3.83;;;6.60;76.20;;;;;;4153251;28;20037;-74
2021/12/19 06:05:12;;;;;;;14.90;2.10;;;6.60;76.50;;;;;;4157318;28;20096;-74
2021/12/19 06:07:13;;;;;;;19.17;1.88;;;6.60;76.70;;;;;;4153063;28;20509;-74
2021/12/19 06:09:14;;;;;;;16.52;2.83;;;6.60;76.80;;;;;;4152318;28;20029;-74
2021/12/19 06:11:15;;;;;;;19.60;2.05;;;6.60;76.50;;;;;;4151437;28;20041;-73
2021/12/19 06:13:16;;;;;;;17.40;2.72;;;6.60;76.60;;;;;;4152657;28;20017;-73
2021/12/19 06:15:16;;;;;;;16.85;2.53;;;6.60;76.40;;;;;;4156669;28;20518;-74
2021/12/19 06:17:17;;;;;;;13.48;2.70;;;6.70;76.80;;;;;;4150765;28;20030;-74
2021/12/19 06:19:18;;;;;;;17.83;1.98;;;6.60;76.70;;;;;;4153376;28;20227;-73
2021/12/19 06:21:18;;;;;;;26.23;3.90;;;6.60;76.90;;;;;;4151473;28;20022;-73
2021/12/19 06:23:19;;;;;;;13.68;2.67;;;6.70;76.90;;;;;;4152313;28;20025;-74
2021/12/19 06:25:20;;;;;;;14.90;3.00;;;6.70;77.00;;;;;;4156107;28;20053;-73
2021/12/19 06:27:21;;;;;;;16.55;2.40;;;6.70;77.00;;;;;;4156389;28;20833;-73
2021/12/19 06:29:21;;;;;;;21.00;2.15;;;6.70;76.80;;;;;;4152615;28;20049;-74
2021/12/19 06:31:22;;;;;;;21.52;2.95;;;6.70;77.00;;;;;;4156933;28;20033;-74
2021/12/19 06:33:22;;;;;;;15.23;1.83;;;6.70;77.00;;;;;;4157886;28;20041;-73
2021/12/19 06:35:29;;;;;;;13.52;2.03;;;6.70;77.10;;;;;;4153811;28;20025;-74
2021/12/19 06:37:29;;;;;;;14.98;1.92;;;6.70;77.20;;;;;;4139234;28;20113;-73
2021/12/19 06:39:30;;;;;;;15.88;2.20;;;6.70;77.10;;;;;;4152741;28;20088;-73
2021/12/19 06:41:31;;;;;;;16.88;2.22;;;6.70;77.20;;;;;;4155351;28;20025;-74
2021/12/19 06:43:33;;;;;;;18.75;2.92;;;6.70;77.20;;;;;;4153614;28;20488;-74
2021/12/19 06:45:33;;;;;;;13.65;1.98;;;6.70;77.30;;;;;;4153274;28;20112;-74
2021/12/19 06:47:34;;;;;;;12.00;2.17;;;6.80;77.40;;;;;;4152509;28;20695;-74
2021/12/19 06:49:35;;;;;;;22.30;2.38;;;6.80;77.30;;;;;;4150107;28;20061;-74
2021/12/19 06:51:35;;;;;;;18.58;3.10;;;6.80;77.40;;;;;;4146725;28;20036;-74
2021/12/19 06:53:36;;;;;;;22.00;2.28;;;6.80;77.40;;;;;;4169293;28;20757;-74
2021/12/19 06:55:37;;;;;;;24.33;3.20;;;6.80;78.20;;;;;;4151253;28;20036;-74
2021/12/19 06:57:38;;;;;;;16.80;2.28;;;6.80;77.40;;;;;;4156096;28;20072;-74
2021/12/19 06:59:38;;;;;;;10.57;1.90;;;6.80;77.40;;;;;;4165067;28;20072;-73
2021/12/19 07:01:39;;;;;;;14.85;2.10;;;6.80;77.40;;;;;;4153469;28;20466;-74
2021/12/19 07:03:39;;;;;;;16.05;2.15;;;6.80;77.20;;;;;;4156337;28;20037;-73
2021/12/19 07:05:40;;;;;;;21.02;5.47;;;6.90;77.30;;;;;;4149809;28;20064;-73
2021/12/19 07:07:41;;;;;;;16.98;3.88;;;6.90;77.10;;;;;;4151190;28;20029;-72
2021/12/19 07:09:42;;;;;;;21.65;7.30;;;6.90;77.10;;;;;;4131851;28;20456;-73
2021/12/19 07:11:43;;;;;;;24.58;4.45;;;7.00;77.10;;;;;;4146727;28;20045;-72
2021/12/19 07:13:44;;;;;;;23.75;5.00;;;7.00;77.00;;;;;;4147902;28;20037;-73
2021/12/19 07:15:44;;;;;;;17.38;3.40;;;7.00;76.80;;;;;;4150238;28;20063;-73
2021/12/19 07:17:45;;;;;;;16.98;4.20;;;7.00;76.70;;;;;;4146354;28;20065;-73
2021/12/19 07:19:46;;;;;;;15.60;3.45;;;7.00;76.70;;;;;;4144335;28;20103;-73
2021/12/19 07:21:46;;;;;;;22.95;5.07;;;7.00;76.60;;;;;;4160901;28;20036;-73
2021/12/19 07:23:47;;;;;;;15.00;3.13;;;7.00;76.60;;;;;;4149807;28;20221;-73
2021/12/19 07:25:47;;;;;;;18.83;3.53;;;7.00;76.60;;;;;;4144764;28;20025;-73
2021/12/19 07:27:48;;;;;;;19.25;4.28;;;7.00;76.60;;;;;;4132381;28;20512;-72
2021/12/19 07:29:49;;;;;;;22.33;3.58;;;7.00;76.50;;;;;;4145040;28;20025;-72
2021/12/19 07:31:50;;;;;;;24.92;6.97;;;7.00;77.40;;;;;;4149763;28;20401;-72
2021/12/19 07:33:51;;;;;;;25.65;6.72;;;7.00;76.60;;;;;;4151741;28;20021;-72
2021/12/19 07:35:52;;;;;;;30.00;7.53;;;7.00;76.60;;;;;;4149831;28;20034;-72
2021/12/19 07:37:55;;;;;;;37.00;11.75;;;7.00;76.70;;;;;;4151168;28;20033;-72
2021/12/19 07:40:08;;;;;;;33.50;9.63;;;7.00;76.70;;;;;;4153904;28;20060;-72
2021/12/19 07:42:10;;;;;;;25.27;4.10;;;7.00;76.60;;;;;;4149297;28;20033;-72
2021/12/19 07:44:10;;;;;;;22.92;7.25;;;7.00;76.50;;;;;;4140480;28;20078;-72
2021/12/19 07:46:11;;;;;;;41.55;12.80;;;7.00;76.40;;;;;;4155980;28;20026;-72
2021/12/19 07:48:12;;;;;;;28.30;6.55;;;7.00;76.40;;;;;;4152321;28;20055;-73
2021/12/19 07:50:13;;;;;;;24.48;5.10;;;7.00;76.40;;;;;;4152265;28;20044;-73
2021/12/19 07:52:13;;;;;;;24.55;5.18;;;7.00;76.50;;;;;;4139781;28;20076;-72
2021/12/19 07:54:14;;;;;;;27.55;6.28;;;7.00;76.40;;;;;;4156732;28;20087;-72
2021/12/19 07:56:14;;;;;;;28.05;5.65;;;7.00;76.40;;;;;;4157188;28;20029;-73
2021/12/19 07:58:15;;;;;;;20.50;4.38;;;7.00;76.40;;;;;;4153257;28;20029;-73
2021/12/19 08:00:16;;;;;;;25.65;4.97;;;7.00;76.20;;;;;;4158380;28;20041;-72
2021/12/19 08:02:17;;;;;;;35.35;6.55;;;7.00;76.40;;;;;;4156616;28;20083;-73
2021/12/19 08:04:17;;;;;;;34.75;4.47;;;7.00;76.20;;;;;;4153949;28;20053;-72
2021/12/19 08:06:18;;;;;;;37.65;6.75;;;7.00;76.40;;;;;;4154352;28;20037;-72
2021/12/19 08:08:25;;;;;;;29.55;7.40;;;7.00;76.20;;;;;;4154092;28;20112;-73
2021/12/19 08:12:32;;;;;;;22.63;5.07;;;7.00;76.40;;;;;;4168410;28;20039;-72
2021/12/19 08:14:33;;;;;;;21.10;3.90;;;7.10;76.60;;;;;;4155134;28;20066;-73
2021/12/19 08:16:34;;;;;;;18.05;3.75;;;7.00;76.50;;;;;;4169907;28;20029;-73
2021/12/19 08:18:35;;;;;;;18.17;3.50;;;7.00;76.50;;;;;;4152497;28;20045;-72
2021/12/19 08:20:35;;;;;;;22.65;3.25;;;7.00;76.60;;;;;;4168719;28;20619;-72
2021/12/19 08:22:36;;;;;;;20.48;4.75;;;7.00;76.60;;;;;;4157113;28;20038;-73
2021/12/19 08:24:37;;;;;;;24.10;4.18;;;7.00;76.80;;;;;;4153684;28;20454;-72
2021/12/19 08:26:39;;;;;;;17.05;3.50;;;7.00;76.90;;;;;;4157794;28;20096;-72
2021/12/19 08:28:39;;;;;;;23.33;3.78;;;7.00;77.00;;;;;;4160524;28;20036;-72
2021/12/19 08:30:40;;;;;;;18.08;2.78;;;7.00;77.00;;;;;;4155416;28;20072;-72
2021/12/19 08:32:41;;;;;;;16.83;2.50;;;6.90;77.00;;;;;;4157562;28;20038;-73
2021/12/19 08:34:41;;;;;;;21.92;2.92;;;7.00;77.30;;;;;;4149379;28;20128;-72
2021/12/19 08:36:42;;;;;;;23.42;3.72;;;7.00;77.20;;;;;;4154653;28;20021;-72
2021/12/19 08:38:42;;;;;;;20.00;3.47;;;7.00;77.40;;;;;;4148702;28;20037;-73
2021/12/19 08:40:45;;;;;;;17.58;2.47;;;7.00;77.40;;;;;;4153064;28;20029;-73
2021/12/19 08:42:46;;;;;;;15.82;2.33;;;7.00;77.30;;;;;;4155564;28;20439;-73
2021/12/19 08:44:46;;;;;;;19.40;2.67;;;7.00;77.40;;;;;;4149985;28;20116;-73
2021/12/19 08:46:47;;;;;;;25.40;2.97;;;7.00;77.40;;;;;;4163156;28;20048;-74
2021/12/19 08:48:47;;;;;;;16.98;2.53;;;7.00;77.50;;;;;;4149363;28;20037;-73
2021/12/19 08:50:48;;;;;;;23.05;3.65;;;7.00;77.40;;;;;;4152189;28;20104;-74
2021/12/19 08:52:51;;;;;;;24.77;2.50;;;7.10;77.50;;;;;;4153766;28;20518;-74
2021/12/19 08:54:51;;;;;;;20.25;2.88;;;7.10;77.50;;;;;;4167867;28;20048;-73
2021/12/19 08:56:52;;;;;;;18.00;3.22;;;7.10;77.30;;;;;;4153732;28;20273;-74
2021/12/19 08:58:53;;;;;;;19.33;3.20;;;7.10;77.20;;;;;;4150926;28;20040;-71
2021/12/19 09:01:01;;;;;;;16.73;2.60;;;7.10;77.10;;;;;;4154859;28;20029;-72
2021/12/19 09:03:01;;;;;;;20.00;2.72;;;7.20;77.20;;;;;;4121033;28;20427;-72
2021/12/19 09:05:02;;;;;;;19.75;3.63;;;7.20;77.00;;;;;;4157919;28;20021;-72
2021/12/19 09:07:03;;;;;;;17.45;2.60;;;7.20;77.10;;;;;;4149470;28;20032;-73
2021/12/19 09:09:04;;;;;;;14.95;2.92;;;7.20;77.10;;;;;;4166467;28;20033;-73
2021/12/19 09:11:05;;;;;;;18.52;2.72;;;7.20;76.90;;;;;;4153401;28;20029;-73
2021/12/19 09:13:05;;;;;;;19.20;2.60;;;7.20;76.70;;;;;;4155499;28;20372;-72
2021/12/19 09:15:06;;;;;;;16.52;2.28;;;7.20;76.60;;;;;;4155120;28;20044;-71
2021/12/19 09:17:07;;;;;;;23.52;2.97;;;7.20;76.70;;;;;;4151482;28;20488;-73
2021/12/19 09:19:08;;;;;;;22.67;2.75;;;7.20;76.70;;;;;;4156112;28;20518;-73
2021/12/19 09:21:08;;;;;;;16.48;2.85;;;7.20;76.60;;;;;;4152998;28;20365;-72
2021/12/19 09:23:09;;;;;;;16.35;2.65;;;7.20;76.60;;;;;;4156715;28;20886;-72
2021/12/19 09:25:10;;;;;;;20.05;2.40;;;7.20;76.70;;;;;;4151742;28;20047;-72
2021/12/19 09:27:11;;;;;;;22.63;2.83;;;7.20;76.50;;;;;;4152351;28;20072;-73
2021/12/19 09:29:11;;;;;;;17.63;2.45;;;7.20;76.40;;;;;;4171674;28;20028;-73
2021/12/19 09:31:12;;;;;;;18.35;3.15;;;7.20;76.40;;;;;;4149679;28;20115;-73
2021/12/19 09:33:12;;;;;;;17.73;2.83;;;7.30;76.50;;;;;;4153734;28;20071;-73
2021/12/19 09:35:14;;;;;;;19.08;2.58;;;7.30;76.40;;;;;;4164642;28;20033;-72
2021/12/19 09:37:15;;;;;;;12.50;2.05;;;7.30;76.20;;;;;;4154029;28;20022;-72
2021/12/19 09:39:17;;;;;;;21.40;2.55;;;7.30;76.00;;;;;;4156608;28;20033;-73
2021/12/19 09:41:27;;;;;;;17.20;3.10;;;7.30;75.40;;;;;;4152479;28;20480;-73
2021/12/19 09:43:43;;;;;;;28.02;3.53;;;7.30;75.40;;;;;;4157008;28;20029;-72
2021/12/19 09:45:43;;;;;;;17.13;2.60;;;7.30;75.40;;;;;;4153028;28;20129;-72
2021/12/19 09:47:44;;;;;;;15.45;3.35;;;7.30;75.40;;;;;;4151433;28;20057;-73
2021/12/19 09:49:45;;;;;;;19.80;2.42;;;7.30;75.50;;;;;;4153388;28;20483;-73
2021/12/19 09:51:46;;;;;;;21.38;2.58;;;7.30;74.80;;;;;;4135293;28;20037;-72
2021/12/19 09:53:47;;;;;;;15.93;2.50;;;7.30;74.60;;;;;;4153947;28;20052;-73
2021/12/19 09:55:47;;;;;;;22.67;2.92;;;7.40;74.80;;;;;;4150297;28;20630;-73
2021/12/19 09:57:49;;;;;;;17.83;2.17;;;7.40;74.60;;;;;;4154306;28;20021;-73
2021/12/19 09:59:49;;;;;;;15.32;2.63;;;7.40;74.30;;;;;;4152867;28;20068;-72
2021/12/19 10:01:51;;;;;;;31.10;2.63;;;7.40;74.60;;;;;;4151392;28;20025;-72
2021/12/19 10:03:51;;;;;;;21.50;3.05;;;7.40;74.10;;;;;;4152041;28;20088;-73
2021/12/19 10:06:17;;;;;;;17.05;2.45;;;7.40;73.40;;;;;;4167743;28;20566;-72
2021/12/19 10:08:24;;;;;;;20.27;3.00;;;7.40;73.40;;;;;;4151232;28;20032;-72
2021/12/19 10:10:52;;;;;;;19.10;3.05;;;7.50;73.70;;;;;;4140302;28;20140;-73
2021/12/19 10:12:57;;;;;;;24.45;2.75;;;7.50;73.40;;;;;;4154226;28;20025;-73
2021/12/19 10:14:58;;;;;;;24.85;2.40;;;7.50;73.20;;;;;;4162688;28;20144;-72
2021/12/19 10:17:03;;;;;;;17.83;2.58;;;7.50;73.20;;;;;;4154461;28;20147;-72
2021/12/19 10:19:04;;;;;;;15.48;2.40;;;7.50;72.70;;;;;;4153601;28;20041;-72
2021/12/19 10:21:05;;;;;;;21.58;2.72;;;7.60;72.90;;;;;;4148543;28;20037;-73
2021/12/19 10:23:16;;;;;;;19.63;2.63;;;7.60;73.10;;;;;;4167214;28;20541;-73
2021/12/19 10:25:19;;;;;;;19.50;2.58;;;7.60;72.30;;;;;;4151282;28;20803;-72
2021/12/19 10:27:41;;;;;;;12.45;2.13;;;7.60;72.50;;;;;;4147015;28;20021;-72
2021/12/19 10:29:45;;;;;;;16.67;2.05;;;7.60;72.10;;;;;;4139041;28;20073;-72
2021/12/19 10:32:01;;;;;;;21.83;2.58;;;7.60;72.70;;;;;;4148879;28;20032;-73
2021/12/19 10:34:21;;;;;;;13.43;1.75;;;7.60;72.70;;;;;;4154162;28;20458;-72
2021/12/19 10:36:22;;;;;;;15.80;1.95;;;7.60;72.30;;;;;;4155138;28;20124;-73
2021/12/19 10:38:31;;;;;;;14.20;1.83;;;7.60;72.30;;;;;;4150234;28;20190;-73
2021/12/19 10:40:32;;;;;;;13.43;2.83;;;7.70;72.40;;;;;;4135800;28;20033;-73
2021/12/19 10:42:46;;;;;;;16.35;1.80;;;7.70;73.00;;;;;;4147431;28;20033;-73
2021/12/19 10:47:23;;;;;;;13.85;1.85;;;7.70;71.50;;;;;;4154033;28;20049;-73
2021/12/19 10:49:31;;;;;;;12.65;2.28;;;7.70;71.20;;;;;;4148965;28;20035;-73
2021/12/19 10:51:37;;;;;;;14.43;2.00;;;7.70;71.20;;;;;;4161395;28;20068;-73
2021/12/19 10:53:41;;;;;;;15.25;2.20;;;7.80;71.20;;;;;;4146510;28;20055;-72
2021/12/19 10:55:46;;;;;;;24.55;2.60;;;7.80;71.10;;;;;;4126277;28;20053;-71
2021/12/19 10:57:48;;;;;;;16.23;1.98;;;7.80;71.30;;;;;;4146386;28;20578;-73
2021/12/19 10:59:48;;;;;;;13.30;1.95;;;7.80;71.30;;;;;;4140426;28;20045;-73
2021/12/19 11:01:51;;;;;;;14.00;1.70;;;7.80;71.10;;;;;;4146261;28;20030;-73
2021/12/19 11:04:11;;;;;;;16.65;2.13;;;7.80;70.70;;;;;;4140022;28;20665;-73
2021/12/19 11:06:25;;;;;;;19.30;2.25;;;7.80;70.30;;;;;;4140997;28;20271;-73
2021/12/19 11:08:31;;;;;;;20.23;2.42;;;7.80;69.90;;;;;;4143153;28;20672;-72
2021/12/19 11:10:32;;;;;;;12.88;1.80;;;7.80;69.30;;;;;;4139048;28;20191;-72
2021/12/19 11:12:33;;;;;;;14.52;1.95;;;7.80;69.10;;;;;;4139503;28;20083;-73
2021/12/19 11:14:41;;;;;;;14.32;2.05;;;7.80;67.90;;;;;;4129374;28;20037;-73
2021/12/19 11:16:41;;;;;;;14.75;2.13;;;7.80;67.90;;;;;;4142907;28;20948;-73
2021/12/19 11:18:42;;;;;;;17.92;2.40;;;7.80;67.70;;;;;;4144281;28;20045;-73
2021/12/19 11:20:43;;;;;;;8.65;1.30;;;7.90;67.50;;;;;;4127269;28;20579;-73
2021/12/19 11:22:43;;;;;;;11.98;2.03;;;7.80;67.40;;;;;;4150019;28;20033;-73
2021/12/19 11:24:44;;;;;;;19.00;2.20;;;7.80;67.20;;;;;;4144492;28;20045;-72
2021/12/19 11:26:46;;;;;;;10.82;1.88;;;7.80;67.60;;;;;;4133212;28;20030;-73
2021/12/19 11:28:48;;;;;;;18.08;2.35;;;7.80;67.50;;;;;;4166716;28;20133;-72
2021/12/19 11:30:48;;;;;;;13.32;2.20;;;7.80;67.70;;;;;;4149757;28;20044;-73
2021/12/19 11:33:01;;;;;;;17.20;2.33;;;7.80;67.40;;;;;;4127161;28;20690;-73
2021/12/19 11:35:26;;;;;;;18.00;3.17;;;7.70;67.00;;;;;;4146095;28;20041;-72
2021/12/19 11:37:39;;;;;;;23.08;4.30;;;7.70;67.40;;;;;;4145353;28;20044;-73
2021/12/19 11:39:42;;;;;;;16.35;3.05;;;7.70;66.90;;;;;;4158930;28;20100;-73
2021/12/19 11:42:02;;;;;;;13.57;2.15;;;7.70;66.70;;;;;;4134453;28;20026;-73
2021/12/19 11:44:06;;;;;;;28.38;3.03;;;7.60;67.30;;;;;;4147561;28;20022;-73
2021/12/19 11:46:25;;;;;;;21.85;2.40;;;7.60;67.10;;;;;;4161109;28;20083;-73
2021/12/19 11:48:29;;;;;;;19.25;2.78;;;7.50;67.50;;;;;;4146965;28;20034;-73
2021/12/19 11:50:50;;;;;;;25.60;3.13;;;7.60;68.00;;;;;;4161632;28;20152;-73
2021/12/19 11:53:09;;;;;;;22.98;2.35;;;7.50;68.00;;;;;;4145359;28;20050;-73